sensor_id;sensor_type;location;lat;lon;timestamp;P1;durP1;ratioP1;P2;durP2;ratioP2
66342;SDS011;53144;51.524;5.080;2023-06-22T00:01:27;4.18;;;3.38;;
66342;SDS011;53144;51.524;5.080;2023-06-22T00:03:52;5.40;;;3.80;;
66342;SDS011;53144;51.524;5.080;2023-06-22T00:06:17;4.93;;;3.95;;
66342;SDS011;53144;51.524;5.080;2023-06-22T00:08:43;5.82;;;3.80;;
66342;SDS011;53144;51.524;5.080;2023-06-22T00:11:08;5.70;;;3.67;;
66342;SDS011;53144;51.524;5.080;2023-06-22T00:13:34;5.68;;;4.43;;
66342;SDS011;53144;51.524;5.080;2023-06-22T00:15:59;6.28;;;4.03;;
66342;SDS011;53144;51.524;5.080;2023-06-22T00:18:25;5.25;;;3.75;;
66342;SDS011;53144;51.524;5.080;2023-06-22T00:20:53;4.30;;;3.70;;
66342;SDS011;53144;51.524;5.080;2023-06-22T00:23:22;4.32;;;3.70;;
66342;SDS011;53144;51.524;5.080;2023-06-22T00:25:48;5.43;;;4.00;;
66342;SDS011;53144;51.524;5.080;2023-06-22T00:28:14;4.80;;;3.83;;
66342;SDS011;53144;51.524;5.080;2023-06-22T00:30:40;3.85;;;3.40;;
66342;SDS011;53144;51.524;5.080;2023-06-22T00:33:05;5.25;;;4.40;;
66342;SDS011;53144;51.524;5.080;2023-06-22T00:35:32;7.63;;;3.90;;
66342;SDS011;53144;51.524;5.080;2023-06-22T00:37:58;6.28;;;3.97;;
66342;SDS011;53144;51.524;5.080;2023-06-22T00:43:50;4.57;;;4.00;;
66342;SDS011;53144;51.524;5.080;2023-06-22T00:46:16;6.70;;;4.80;;
66342;SDS011;53144;51.524;5.080;2023-06-22T00:48:41;4.90;;;4.32;;
66342;SDS011;53144;51.524;5.080;2023-06-22T00:51:08;7.05;;;4.47;;
66342;SDS011;53144;51.524;5.080;2023-06-22T00:53:35;7.25;;;4.38;;
66342;SDS011;53144;51.524;5.080;2023-06-22T00:56:02;5.45;;;4.10;;
66342;SDS011;53144;51.524;5.080;2023-06-22T00:58:28;5.55;;;4.32;;
66342;SDS011;53144;51.524;5.080;2023-06-22T01:00:54;5.45;;;4.32;;
66342;SDS011;53144;51.524;5.080;2023-06-22T01:03:19;5.47;;;4.30;;
66342;SDS011;53144;51.524;5.080;2023-06-22T01:05:45;6.07;;;5.22;;
66342;SDS011;53144;51.524;5.080;2023-06-22T01:13:44;5.95;;;4.05;;
66342;SDS011;53144;51.524;5.080;2023-06-22T01:16:29;7.63;;;4.20;;
66342;SDS011;53144;51.524;5.080;2023-06-22T01:18:57;8.25;;;4.53;;
66342;SDS011;53144;51.524;5.080;2023-06-22T01:21:25;7.30;;;4.10;;
66342;SDS011;53144;51.524;5.080;2023-06-22T01:26:43;4.53;;;4.00;;
66342;SDS011;53144;51.524;5.080;2023-06-22T01:29:22;7.93;;;4.22;;
66342;SDS011;53144;51.524;5.080;2023-06-22T01:31:50;8.25;;;4.30;;
66342;SDS011;53144;51.524;5.080;2023-06-22T01:34:17;5.78;;;4.80;;
66342;SDS011;53144;51.524;5.080;2023-06-22T01:36:43;6.88;;;4.50;;
66342;SDS011;53144;51.524;5.080;2023-06-22T01:39:09;7.60;;;4.32;;
66342;SDS011;53144;51.524;5.080;2023-06-22T01:41:37;6.60;;;4.28;;
66342;SDS011;53144;51.524;5.080;2023-06-22T01:44:05;8.23;;;4.72;;
66342;SDS011;53144;51.524;5.080;2023-06-22T01:46:33;5.72;;;4.40;;
66342;SDS011;53144;51.524;5.080;2023-06-22T01:48:59;7.00;;;5.25;;
66342;SDS011;53144;51.524;5.080;2023-06-22T01:51:27;6.95;;;5.35;;
66342;SDS011;53144;51.524;5.080;2023-06-22T01:53:52;7.85;;;5.60;;
66342;SDS011;53144;51.524;5.080;2023-06-22T01:56:17;6.90;;;5.60;;
66342;SDS011;53144;51.524;5.080;2023-06-22T01:58:47;6.57;;;5.88;;
66342;SDS011;53144;51.524;5.080;2023-06-22T02:01:17;7.65;;;6.28;;
66342;SDS011;53144;51.524;5.080;2023-06-22T02:03:51;9.82;;;6.65;;
66342;SDS011;53144;51.524;5.080;2023-06-22T02:06:44;9.82;;;6.22;;
66342;SDS011;53144;51.524;5.080;2023-06-22T02:09:15;11.23;;;7.03;;
66342;SDS011;53144;51.524;5.080;2023-06-22T02:11:43;9.32;;;6.95;;
66342;SDS011;53144;51.524;5.080;2023-06-22T02:14:10;9.48;;;7.75;;
66342;SDS011;53144;51.524;5.080;2023-06-22T02:16:37;10.35;;;8.65;;
66342;SDS011;53144;51.524;5.080;2023-06-22T02:19:03;12.52;;;8.13;;
66342;SDS011;53144;51.524;5.080;2023-06-22T02:21:29;10.88;;;7.53;;
66342;SDS011;53144;51.524;5.080;2023-06-22T02:23:55;12.90;;;7.45;;
66342;SDS011;53144;51.524;5.080;2023-06-22T02:26:21;11.50;;;7.75;;
66342;SDS011;53144;51.524;5.080;2023-06-22T02:28:48;10.38;;;7.60;;
66342;SDS011;53144;51.524;5.080;2023-06-22T02:31:14;11.55;;;9.02;;
66342;SDS011;53144;51.524;5.080;2023-06-22T02:33:39;11.48;;;8.77;;
66342;SDS011;53144;51.524;5.080;2023-06-22T02:36:05;13.20;;;9.90;;
66342;SDS011;53144;51.524;5.080;2023-06-22T02:38:34;12.95;;;8.95;;
66342;SDS011;53144;51.524;5.080;2023-06-22T02:41:01;10.13;;;8.45;;
66342;SDS011;53144;51.524;5.080;2023-06-22T02:43:27;10.80;;;8.15;;
66342;SDS011;53144;51.524;5.080;2023-06-22T02:45:53;11.27;;;8.63;;
66342;SDS011;53144;51.524;5.080;2023-06-22T02:48:18;15.50;;;9.85;;
66342;SDS011;53144;51.524;5.080;2023-06-22T02:50:44;12.90;;;9.68;;
66342;SDS011;53144;51.524;5.080;2023-06-22T02:53:09;13.18;;;10.63;;
66342;SDS011;53144;51.524;5.080;2023-06-22T02:55:35;13.45;;;10.32;;
66342;SDS011;53144;51.524;5.080;2023-06-22T02:58:00;11.85;;;10.10;;
66342;SDS011;53144;51.524;5.080;2023-06-22T03:00:29;14.45;;;10.85;;
66342;SDS011;53144;51.524;5.080;2023-06-22T03:02:55;15.23;;;11.07;;
66342;SDS011;53144;51.524;5.080;2023-06-22T03:05:21;14.07;;;11.60;;
66342;SDS011;53144;51.524;5.080;2023-06-22T03:07:46;14.25;;;11.75;;
66342;SDS011;53144;51.524;5.080;2023-06-22T03:10:12;14.50;;;12.63;;
66342;SDS011;53144;51.524;5.080;2023-06-22T03:12:39;15.23;;;12.32;;
66342;SDS011;53144;51.524;5.080;2023-06-22T03:15:06;17.90;;;12.88;;
66342;SDS011;53144;51.524;5.080;2023-06-22T03:17:33;15.05;;;12.52;;
66342;SDS011;53144;51.524;5.080;2023-06-22T03:19:59;13.82;;;12.43;;
66342;SDS011;53144;51.524;5.080;2023-06-22T03:22:24;17.02;;;12.82;;
66342;SDS011;53144;51.524;5.080;2023-06-22T03:24:50;17.98;;;12.90;;
66342;SDS011;53144;51.524;5.080;2023-06-22T03:27:15;15.00;;;12.40;;
66342;SDS011;53144;51.524;5.080;2023-06-22T03:29:40;14.82;;;12.82;;
66342;SDS011;53144;51.524;5.080;2023-06-22T03:32:06;20.80;;;13.15;;
66342;SDS011;53144;51.524;5.080;2023-06-22T03:34:31;18.98;;;13.70;;
66342;SDS011;53144;51.524;5.080;2023-06-22T03:37:11;14.45;;;12.55;;
66342;SDS011;53144;51.524;5.080;2023-06-22T03:39:37;13.95;;;12.43;;
66342;SDS011;53144;51.524;5.080;2023-06-22T03:42:02;14.02;;;12.50;;
66342;SDS011;53144;51.524;5.080;2023-06-22T03:44:28;15.73;;;12.43;;
66342;SDS011;53144;51.524;5.080;2023-06-22T03:46:53;15.00;;;11.75;;
66342;SDS011;53144;51.524;5.080;2023-06-22T03:49:18;16.25;;;12.23;;
66342;SDS011;53144;51.524;5.080;2023-06-22T03:51:44;17.15;;;12.90;;
66342;SDS011;53144;51.524;5.080;2023-06-22T03:54:09;16.13;;;12.57;;
66342;SDS011;53144;51.524;5.080;2023-06-22T03:56:35;13.82;;;12.38;;
66342;SDS011;53144;51.524;5.080;2023-06-22T03:59:00;17.35;;;12.52;;
66342;SDS011;53144;51.524;5.080;2023-06-22T04:01:25;14.48;;;12.68;;
66342;SDS011;53144;51.524;5.080;2023-06-22T04:03:51;23.20;;;12.43;;
66342;SDS011;53144;51.524;5.080;2023-06-22T04:06:16;19.35;;;12.00;;
66342;SDS011;53144;51.524;5.080;2023-06-22T04:08:42;14.68;;;11.95;;
66342;SDS011;53144;51.524;5.080;2023-06-22T04:11:07;16.13;;;12.20;;
66342;SDS011;53144;51.524;5.080;2023-06-22T04:13:32;14.63;;;11.93;;
66342;SDS011;53144;51.524;5.080;2023-06-22T04:15:58;13.75;;;11.60;;
66342;SDS011;53144;51.524;5.080;2023-06-22T04:18:23;14.15;;;11.35;;
66342;SDS011;53144;51.524;5.080;2023-06-22T04:20:49;12.27;;;10.65;;
66342;SDS011;53144;51.524;5.080;2023-06-22T04:23:14;14.13;;;11.10;;
66342;SDS011;53144;51.524;5.080;2023-06-22T04:25:39;13.77;;;11.10;;
66342;SDS011;53144;51.524;5.080;2023-06-22T04:28:05;15.27;;;10.75;;
66342;SDS011;53144;51.524;5.080;2023-06-22T04:30:32;16.65;;;11.02;;
66342;SDS011;53144;51.524;5.080;2023-06-22T04:32:58;15.70;;;11.23;;
66342;SDS011;53144;51.524;5.080;2023-06-22T04:35:23;12.73;;;10.93;;
66342;SDS011;53144;51.524;5.080;2023-06-22T04:37:49;13.38;;;10.70;;
66342;SDS011;53144;51.524;5.080;2023-06-22T04:40:15;14.05;;;10.63;;
66342;SDS011;53144;51.524;5.080;2023-06-22T04:42:41;12.30;;;11.00;;
66342;SDS011;53144;51.524;5.080;2023-06-22T04:45:18;18.00;;;11.07;;
66342;SDS011;53144;51.524;5.080;2023-06-22T04:47:44;14.85;;;11.25;;
66342;SDS011;53144;51.524;5.080;2023-06-22T04:50:11;15.32;;;10.70;;
66342;SDS011;53144;51.524;5.080;2023-06-22T04:52:39;15.00;;;11.05;;
66342;SDS011;53144;51.524;5.080;2023-06-22T04:55:04;16.40;;;10.93;;
66342;SDS011;53144;51.524;5.080;2023-06-22T04:57:30;14.07;;;10.73;;
66342;SDS011;53144;51.524;5.080;2023-06-22T05:00:00;12.43;;;10.95;;
66342;SDS011;53144;51.524;5.080;2023-06-22T05:02:41;21.50;;;11.18;;
66342;SDS011;53144;51.524;5.080;2023-06-22T05:05:07;14.30;;;10.25;;
66342;SDS011;53144;51.524;5.080;2023-06-22T05:07:33;14.63;;;10.65;;
66342;SDS011;53144;51.524;5.080;2023-06-22T05:09:59;14.30;;;10.98;;
66342;SDS011;53144;51.524;5.080;2023-06-22T05:12:28;12.38;;;10.05;;
66342;SDS011;53144;51.524;5.080;2023-06-22T05:14:54;13.48;;;10.27;;
66342;SDS011;53144;51.524;5.080;2023-06-22T05:17:20;15.63;;;10.77;;
66342;SDS011;53144;51.524;5.080;2023-06-22T05:19:45;14.63;;;10.50;;
66342;SDS011;53144;51.524;5.080;2023-06-22T05:22:16;13.82;;;9.48;;
66342;SDS011;53144;51.524;5.080;2023-06-22T05:24:42;12.77;;;8.85;;
66342;SDS011;53144;51.524;5.080;2023-06-22T05:27:08;12.02;;;9.88;;
66342;SDS011;53144;51.524;5.080;2023-06-22T05:29:34;11.65;;;9.57;;
66342;SDS011;53144;51.524;5.080;2023-06-22T05:32:00;11.23;;;8.85;;
66342;SDS011;53144;51.524;5.080;2023-06-22T05:34:26;11.35;;;8.57;;
66342;SDS011;53144;51.524;5.080;2023-06-22T05:36:51;10.23;;;8.38;;
66342;SDS011;53144;51.524;5.080;2023-06-22T05:39:17;11.55;;;9.00;;
66342;SDS011;53144;51.524;5.080;2023-06-22T05:41:42;11.90;;;8.77;;
66342;SDS011;53144;51.524;5.080;2023-06-22T05:44:10;8.85;;;7.82;;
66342;SDS011;53144;51.524;5.080;2023-06-22T05:46:35;12.02;;;8.80;;
66342;SDS011;53144;51.524;5.080;2023-06-22T05:49:00;12.55;;;8.63;;
66342;SDS011;53144;51.524;5.080;2023-06-22T05:51:26;11.60;;;8.65;;
66342;SDS011;53144;51.524;5.080;2023-06-22T05:53:51;10.45;;;8.15;;
66342;SDS011;53144;51.524;5.080;2023-06-22T05:56:16;10.00;;;7.95;;
66342;SDS011;53144;51.524;5.080;2023-06-22T05:58:42;9.63;;;8.07;;
66342;SDS011;53144;51.524;5.080;2023-06-22T06:01:08;12.45;;;9.20;;
66342;SDS011;53144;51.524;5.080;2023-06-22T06:03:33;14.85;;;8.80;;
66342;SDS011;53144;51.524;5.080;2023-06-22T06:05:58;11.00;;;8.38;;
66342;SDS011;53144;51.524;5.080;2023-06-22T06:08:24;13.95;;;9.00;;
66342;SDS011;53144;51.524;5.080;2023-06-22T06:10:50;10.95;;;8.50;;
66342;SDS011;53144;51.524;5.080;2023-06-22T06:13:18;13.55;;;9.35;;
66342;SDS011;53144;51.524;5.080;2023-06-22T06:15:43;12.50;;;9.48;;
66342;SDS011;53144;51.524;5.080;2023-06-22T06:18:08;17.52;;;9.88;;
66342;SDS011;53144;51.524;5.080;2023-06-22T06:20:34;11.38;;;9.90;;
66342;SDS011;53144;51.524;5.080;2023-06-22T06:23:00;10.25;;;9.15;;
66342;SDS011;53144;51.524;5.080;2023-06-22T06:25:26;13.32;;;9.40;;
66342;SDS011;53144;51.524;5.080;2023-06-22T06:27:51;14.90;;;10.38;;
66342;SDS011;53144;51.524;5.080;2023-06-22T06:30:19;13.65;;;9.93;;
66342;SDS011;53144;51.524;5.080;2023-06-22T06:32:45;12.73;;;9.30;;
66342;SDS011;53144;51.524;5.080;2023-06-22T06:35:12;13.07;;;9.50;;
66342;SDS011;53144;51.524;5.080;2023-06-22T06:37:39;14.40;;;9.73;;
66342;SDS011;53144;51.524;5.080;2023-06-22T06:40:06;12.10;;;9.93;;
66342;SDS011;53144;51.524;5.080;2023-06-22T06:42:36;11.75;;;9.52;;
66342;SDS011;53144;51.524;5.080;2023-06-22T06:45:17;10.68;;;9.57;;
66342;SDS011;53144;51.524;5.080;2023-06-22T06:47:45;13.02;;;10.35;;
66342;SDS011;53144;51.524;5.080;2023-06-22T06:50:11;18.10;;;9.88;;
66342;SDS011;53144;51.524;5.080;2023-06-22T06:52:37;11.23;;;10.05;;
66342;SDS011;53144;51.524;5.080;2023-06-22T06:55:03;12.27;;;10.32;;
66342;SDS011;53144;51.524;5.080;2023-06-22T06:57:34;13.55;;;9.95;;
66342;SDS011;53144;51.524;5.080;2023-06-22T06:59:59;14.32;;;10.43;;
66342;SDS011;53144;51.524;5.080;2023-06-22T07:02:25;13.52;;;9.88;;
66342;SDS011;53144;51.524;5.080;2023-06-22T07:04:53;11.52;;;10.10;;
66342;SDS011;53144;51.524;5.080;2023-06-22T07:07:20;12.85;;;10.75;;
66342;SDS011;53144;51.524;5.080;2023-06-22T07:09:46;11.43;;;9.80;;
66342;SDS011;53144;51.524;5.080;2023-06-22T07:12:11;14.50;;;10.95;;
66342;SDS011;53144;51.524;5.080;2023-06-22T07:14:37;13.95;;;10.77;;
66342;SDS011;53144;51.524;5.080;2023-06-22T07:17:02;12.65;;;10.32;;
66342;SDS011;53144;51.524;5.080;2023-06-22T07:19:28;14.00;;;10.63;;
66342;SDS011;53144;51.524;5.080;2023-06-22T07:21:53;13.75;;;10.32;;
66342;SDS011;53144;51.524;5.080;2023-06-22T07:24:20;17.52;;;10.57;;
66342;SDS011;53144;51.524;5.080;2023-06-22T07:26:47;14.43;;;10.13;;
66342;SDS011;53144;51.524;5.080;2023-06-22T07:29:13;15.27;;;10.60;;
66342;SDS011;53144;51.524;5.080;2023-06-22T07:31:39;13.15;;;10.15;;
66342;SDS011;53144;51.524;5.080;2023-06-22T07:34:06;13.98;;;10.15;;
66342;SDS011;53144;51.524;5.080;2023-06-22T07:36:31;14.93;;;11.80;;
66342;SDS011;53144;51.524;5.080;2023-06-22T07:38:56;16.40;;;11.02;;
66342;SDS011;53144;51.524;5.080;2023-06-22T07:41:22;19.20;;;10.63;;
66342;SDS011;53144;51.524;5.080;2023-06-22T07:43:47;15.73;;;11.20;;
66342;SDS011;53144;51.524;5.080;2023-06-22T07:46:13;13.60;;;11.00;;
66342;SDS011;53144;51.524;5.080;2023-06-22T07:48:39;15.57;;;11.23;;
66342;SDS011;53144;51.524;5.080;2023-06-22T07:51:06;15.45;;;12.10;;
66342;SDS011;53144;51.524;5.080;2023-06-22T07:53:32;13.65;;;10.93;;
66342;SDS011;53144;51.524;5.080;2023-06-22T07:55:57;15.65;;;10.70;;
66342;SDS011;53144;51.524;5.080;2023-06-22T07:58:23;16.00;;;10.60;;
66342;SDS011;53144;51.524;5.080;2023-06-22T08:00:48;12.88;;;10.43;;
66342;SDS011;53144;51.524;5.080;2023-06-22T08:03:14;14.60;;;10.75;;
66342;SDS011;53144;51.524;5.080;2023-06-22T08:05:40;15.10;;;11.63;;
66342;SDS011;53144;51.524;5.080;2023-06-22T08:08:05;17.70;;;11.63;;
66342;SDS011;53144;51.524;5.080;2023-06-22T08:10:31;13.32;;;11.70;;
66342;SDS011;53144;51.524;5.080;2023-06-22T08:12:56;15.82;;;11.82;;
66342;SDS011;53144;51.524;5.080;2023-06-22T08:15:21;19.90;;;11.90;;
66342;SDS011;53144;51.524;5.080;2023-06-22T08:17:47;14.38;;;11.75;;
66342;SDS011;53144;51.524;5.080;2023-06-22T08:20:12;15.15;;;12.18;;
66342;SDS011;53144;51.524;5.080;2023-06-22T08:22:38;17.85;;;12.15;;
66342;SDS011;53144;51.524;5.080;2023-06-22T08:25:05;15.73;;;11.52;;
66342;SDS011;53144;51.524;5.080;2023-06-22T08:27:31;18.77;;;12.32;;
66342;SDS011;53144;51.524;5.080;2023-06-22T08:29:57;15.23;;;11.63;;
66342;SDS011;53144;51.524;5.080;2023-06-22T08:32:29;19.02;;;13.10;;
66342;SDS011;53144;51.524;5.080;2023-06-22T08:34:55;14.82;;;12.38;;
66342;SDS011;53144;51.524;5.080;2023-06-22T08:37:21;14.63;;;11.93;;
66342;SDS011;53144;51.524;5.080;2023-06-22T08:39:58;14.48;;;11.85;;
66342;SDS011;53144;51.524;5.080;2023-06-22T08:42:24;18.95;;;12.65;;
66342;SDS011;53144;51.524;5.080;2023-06-22T08:44:50;15.57;;;12.80;;
66342;SDS011;53144;51.524;5.080;2023-06-22T08:47:16;15.98;;;13.18;;
66342;SDS011;53144;51.524;5.080;2023-06-22T08:49:42;15.70;;;11.85;;
66342;SDS011;53144;51.524;5.080;2023-06-22T08:52:07;16.40;;;12.45;;
66342;SDS011;53144;51.524;5.080;2023-06-22T08:54:33;16.10;;;12.65;;
66342;SDS011;53144;51.524;5.080;2023-06-22T08:56:59;19.33;;;12.40;;
66342;SDS011;53144;51.524;5.080;2023-06-22T08:59:25;15.05;;;12.65;;
66342;SDS011;53144;51.524;5.080;2023-06-22T09:01:51;14.80;;;11.07;;
66342;SDS011;53144;51.524;5.080;2023-06-22T09:04:16;15.35;;;11.52;;
66342;SDS011;53144;51.524;5.080;2023-06-22T09:06:41;13.48;;;11.40;;
66342;SDS011;53144;51.524;5.080;2023-06-22T09:09:10;14.55;;;11.88;;
66342;SDS011;53144;51.524;5.080;2023-06-22T09:11:37;13.00;;;11.27;;
66342;SDS011;53144;51.524;5.080;2023-06-22T09:14:02;12.57;;;10.98;;
66342;SDS011;53144;51.524;5.080;2023-06-22T09:16:28;12.48;;;10.45;;
66342;SDS011;53144;51.524;5.080;2023-06-22T09:18:54;16.63;;;11.18;;
66342;SDS011;53144;51.524;5.080;2023-06-22T09:21:19;18.63;;;12.40;;
66342;SDS011;53144;51.524;5.080;2023-06-22T09:23:45;14.52;;;11.20;;
66342;SDS011;53144;51.524;5.080;2023-06-22T09:26:15;14.40;;;12.02;;
66342;SDS011;53144;51.524;5.080;2023-06-22T09:28:40;17.77;;;12.60;;
66342;SDS011;53144;51.524;5.080;2023-06-22T09:31:06;15.52;;;11.77;;
66342;SDS011;53144;51.524;5.080;2023-06-22T09:33:32;15.70;;;12.52;;
66342;SDS011;53144;51.524;5.080;2023-06-22T09:35:58;15.32;;;12.65;;
66342;SDS011;53144;51.524;5.080;2023-06-22T09:38:27;15.85;;;13.05;;
66342;SDS011;53144;51.524;5.080;2023-06-22T09:40:53;18.08;;;11.90;;
66342;SDS011;53144;51.524;5.080;2023-06-22T09:43:19;18.50;;;12.93;;
66342;SDS011;53144;51.524;5.080;2023-06-22T09:45:44;15.02;;;12.80;;
66342;SDS011;53144;51.524;5.080;2023-06-22T09:48:10;15.32;;;12.23;;
66342;SDS011;53144;51.524;5.080;2023-06-22T09:50:36;17.25;;;13.25;;
66342;SDS011;53144;51.524;5.080;2023-06-22T09:53:02;18.90;;;13.20;;
66342;SDS011;53144;51.524;5.080;2023-06-22T09:55:28;19.65;;;12.73;;
66342;SDS011;53144;51.524;5.080;2023-06-22T09:57:53;16.63;;;12.07;;
66342;SDS011;53144;51.524;5.080;2023-06-22T10:00:20;17.50;;;12.07;;
66342;SDS011;53144;51.524;5.080;2023-06-22T10:02:48;15.85;;;12.82;;
66342;SDS011;53144;51.524;5.080;2023-06-22T10:05:15;15.93;;;12.85;;
66342;SDS011;53144;51.524;5.080;2023-06-22T10:07:41;16.60;;;11.45;;
66342;SDS011;53144;51.524;5.080;2023-06-22T10:10:11;14.50;;;11.63;;
66342;SDS011;53144;51.524;5.080;2023-06-22T10:12:45;15.30;;;11.65;;
66342;SDS011;53144;51.524;5.080;2023-06-22T10:15:12;15.82;;;11.80;;
66342;SDS011;53144;51.524;5.080;2023-06-22T10:17:38;15.88;;;12.10;;
66342;SDS011;53144;51.524;5.080;2023-06-22T10:20:04;13.25;;;10.80;;
66342;SDS011;53144;51.524;5.080;2023-06-22T10:22:40;12.52;;;11.18;;
66342;SDS011;53144;51.524;5.080;2023-06-22T10:25:07;15.18;;;12.38;;
66342;SDS011;53144;51.524;5.080;2023-06-22T10:27:32;16.48;;;11.48;;
66342;SDS011;53144;51.524;5.080;2023-06-22T10:29:58;13.65;;;12.13;;
66342;SDS011;53144;51.524;5.080;2023-06-22T10:32:23;16.73;;;12.70;;
66342;SDS011;53144;51.524;5.080;2023-06-22T10:34:49;17.02;;;12.70;;
66342;SDS011;53144;51.524;5.080;2023-06-22T10:37:14;14.80;;;11.85;;
66342;SDS011;53144;51.524;5.080;2023-06-22T10:39:39;14.48;;;12.75;;
66342;SDS011;53144;51.524;5.080;2023-06-22T10:42:05;17.50;;;12.73;;
66342;SDS011;53144;51.524;5.080;2023-06-22T10:44:30;17.40;;;12.70;;
66342;SDS011;53144;51.524;5.080;2023-06-22T10:46:56;16.75;;;13.85;;
66342;SDS011;53144;51.524;5.080;2023-06-22T10:49:21;16.90;;;13.00;;
66342;SDS011;53144;51.524;5.080;2023-06-22T10:51:47;16.67;;;13.25;;
66342;SDS011;53144;51.524;5.080;2023-06-22T10:54:12;15.45;;;12.32;;
66342;SDS011;53144;51.524;5.080;2023-06-22T10:56:39;18.50;;;13.40;;
66342;SDS011;53144;51.524;5.080;2023-06-22T10:59:05;18.17;;;13.07;;
66342;SDS011;53144;51.524;5.080;2023-06-22T11:01:30;14.32;;;12.82;;
66342;SDS011;53144;51.524;5.080;2023-06-22T11:03:56;17.63;;;13.80;;
66342;SDS011;53144;51.524;5.080;2023-06-22T11:06:22;20.38;;;14.18;;
66342;SDS011;53144;51.524;5.080;2023-06-22T11:08:47;17.13;;;15.32;;
66342;SDS011;53144;51.524;5.080;2023-06-22T11:11:13;22.08;;;17.60;;
66342;SDS011;53144;51.524;5.080;2023-06-22T11:13:38;19.30;;;16.75;;
66342;SDS011;53144;51.524;5.080;2023-06-22T11:16:04;16.98;;;15.18;;
66342;SDS011;53144;51.524;5.080;2023-06-22T11:18:30;20.67;;;15.65;;
66342;SDS011;53144;51.524;5.080;2023-06-22T11:20:58;23.27;;;16.23;;
66342;SDS011;53144;51.524;5.080;2023-06-22T11:23:24;20.13;;;18.02;;
66342;SDS011;53144;51.524;5.080;2023-06-22T11:25:51;20.35;;;17.70;;
66342;SDS011;53144;51.524;5.080;2023-06-22T11:28:16;20.02;;;17.98;;
66342;SDS011;53144;51.524;5.080;2023-06-22T11:30:41;20.90;;;18.70;;
66342;SDS011;53144;51.524;5.080;2023-06-22T11:33:07;23.45;;;19.30;;
66342;SDS011;53144;51.524;5.080;2023-06-22T11:35:33;22.85;;;20.17;;
66342;SDS011;53144;51.524;5.080;2023-06-22T11:37:58;23.23;;;20.00;;
66342;SDS011;53144;51.524;5.080;2023-06-22T11:40:23;20.85;;;17.92;;
66342;SDS011;53144;51.524;5.080;2023-06-22T11:42:49;25.73;;;19.55;;
66342;SDS011;53144;51.524;5.080;2023-06-22T11:45:14;19.17;;;16.42;;
66342;SDS011;53144;51.524;5.080;2023-06-22T11:47:40;19.55;;;16.38;;
66342;SDS011;53144;51.524;5.080;2023-06-22T11:50:05;22.48;;;18.33;;
66342;SDS011;53144;51.524;5.080;2023-06-22T11:52:31;25.33;;;17.17;;
66342;SDS011;53144;51.524;5.080;2023-06-22T11:54:58;19.83;;;16.95;;
66342;SDS011;53144;51.524;5.080;2023-06-22T11:57:24;24.20;;;17.77;;
66342;SDS011;53144;51.524;5.080;2023-06-22T11:59:49;19.60;;;17.60;;
66342;SDS011;53144;51.524;5.080;2023-06-22T12:02:15;21.23;;;18.38;;
66342;SDS011;53144;51.524;5.080;2023-06-22T12:04:40;29.38;;;19.67;;
66342;SDS011;53144;51.524;5.080;2023-06-22T12:07:06;19.38;;;16.20;;
66342;SDS011;53144;51.524;5.080;2023-06-22T12:09:32;22.77;;;18.23;;
66342;SDS011;53144;51.524;5.080;2023-06-22T12:11:58;21.75;;;18.15;;
66342;SDS011;53144;51.524;5.080;2023-06-22T12:14:23;20.58;;;18.35;;
66342;SDS011;53144;51.524;5.080;2023-06-22T12:16:48;19.95;;;17.35;;
66342;SDS011;53144;51.524;5.080;2023-06-22T12:19:14;20.58;;;18.08;;
66342;SDS011;53144;51.524;5.080;2023-06-22T12:21:39;23.90;;;19.58;;
66342;SDS011;53144;51.524;5.080;2023-06-22T12:24:05;20.85;;;18.70;;
66342;SDS011;53144;51.524;5.080;2023-06-22T12:26:31;24.90;;;20.20;;
66342;SDS011;53144;51.524;5.080;2023-06-22T12:28:56;28.83;;;18.55;;
66342;SDS011;53144;51.524;5.080;2023-06-22T12:31:22;26.83;;;20.83;;
66342;SDS011;53144;51.524;5.080;2023-06-22T12:33:47;28.08;;;19.52;;
66342;SDS011;53144;51.524;5.080;2023-06-22T12:36:13;19.00;;;17.05;;
66342;SDS011;53144;51.524;5.080;2023-06-22T12:38:38;17.58;;;15.70;;
66342;SDS011;53144;51.524;5.080;2023-06-22T12:41:04;18.05;;;16.10;;
66342;SDS011;53144;51.524;5.080;2023-06-22T12:43:29;19.52;;;17.02;;
66342;SDS011;53144;51.524;5.080;2023-06-22T12:45:54;19.67;;;17.08;;
66342;SDS011;53144;51.524;5.080;2023-06-22T12:48:21;24.27;;;16.98;;
66342;SDS011;53144;51.524;5.080;2023-06-22T12:50:47;18.85;;;16.80;;
66342;SDS011;53144;51.524;5.080;2023-06-22T12:53:13;20.42;;;17.30;;
66342;SDS011;53144;51.524;5.080;2023-06-22T12:55:38;20.13;;;18.00;;
66342;SDS011;53144;51.524;5.080;2023-06-22T12:58:03;19.23;;;17.23;;
66342;SDS011;53144;51.524;5.080;2023-06-22T13:00:29;19.65;;;16.45;;
66342;SDS011;53144;51.524;5.080;2023-06-22T13:02:54;18.75;;;16.40;;
66342;SDS011;53144;51.524;5.080;2023-06-22T13:05:19;23.85;;;18.13;;
66342;SDS011;53144;51.524;5.080;2023-06-22T13:07:45;20.30;;;17.92;;
66342;SDS011;53144;51.524;5.080;2023-06-22T13:10:10;24.15;;;19.40;;
66342;SDS011;53144;51.524;5.080;2023-06-22T13:12:36;21.42;;;19.13;;
66342;SDS011;53144;51.524;5.080;2023-06-22T13:15:01;27.08;;;19.83;;
66342;SDS011;53144;51.524;5.080;2023-06-22T13:17:28;23.80;;;19.73;;
66342;SDS011;53144;51.524;5.080;2023-06-22T13:19:53;21.98;;;17.60;;
66342;SDS011;53144;51.524;5.080;2023-06-22T13:22:52;23.42;;;18.50;;
66342;SDS011;53144;51.524;5.080;2023-06-22T13:25:10;20.83;;;17.88;;
66342;SDS011;53144;51.524;5.080;2023-06-22T13:27:40;20.38;;;18.00;;
66342;SDS011;53144;51.524;5.080;2023-06-22T13:30:07;21.05;;;18.77;;
66342;SDS011;53144;51.524;5.080;2023-06-22T13:32:33;20.88;;;18.40;;
66342;SDS011;53144;51.524;5.080;2023-06-22T13:34:58;20.10;;;17.83;;
66342;SDS011;53144;51.524;5.080;2023-06-22T13:37:23;19.55;;;17.45;;
66342;SDS011;53144;51.524;5.080;2023-06-22T13:39:49;20.27;;;17.48;;
66342;SDS011;53144;51.524;5.080;2023-06-22T13:42:14;21.25;;;18.77;;
66342;SDS011;53144;51.524;5.080;2023-06-22T13:44:40;21.33;;;17.67;;
66342;SDS011;53144;51.524;5.080;2023-06-22T13:47:06;18.90;;;16.90;;
66342;SDS011;53144;51.524;5.080;2023-06-22T13:49:31;22.75;;;20.27;;
66342;SDS011;53144;51.524;5.080;2023-06-22T13:51:57;22.85;;;20.15;;
66342;SDS011;53144;51.524;5.080;2023-06-22T13:54:22;23.45;;;20.05;;
66342;SDS011;53144;51.524;5.080;2023-06-22T13:56:48;22.15;;;19.77;;
66342;SDS011;53144;51.524;5.080;2023-06-22T13:59:13;21.25;;;18.63;;
66342;SDS011;53144;51.524;5.080;2023-06-22T14:01:38;24.23;;;20.20;;
66342;SDS011;53144;51.524;5.080;2023-06-22T14:04:05;20.63;;;18.45;;
66342;SDS011;53144;51.524;5.080;2023-06-22T14:06:30;19.42;;;17.42;;
66342;SDS011;53144;51.524;5.080;2023-06-22T14:08:56;20.40;;;18.25;;
66342;SDS011;53144;51.524;5.080;2023-06-22T14:11:21;24.15;;;19.23;;
66342;SDS011;53144;51.524;5.080;2023-06-22T14:13:46;19.77;;;17.77;;
66342;SDS011;53144;51.524;5.080;2023-06-22T14:16:12;21.48;;;18.52;;
66342;SDS011;53144;51.524;5.080;2023-06-22T14:18:37;20.67;;;18.67;;
66342;SDS011;53144;51.524;5.080;2023-06-22T14:21:03;20.35;;;18.25;;
66342;SDS011;53144;51.524;5.080;2023-06-22T14:23:28;20.80;;;17.58;;
66342;SDS011;53144;51.524;5.080;2023-06-22T14:25:54;22.98;;;18.90;;
66342;SDS011;53144;51.524;5.080;2023-06-22T14:28:19;19.60;;;17.50;;
66342;SDS011;53144;51.524;5.080;2023-06-22T14:30:44;20.08;;;17.98;;
66342;SDS011;53144;51.524;5.080;2023-06-22T14:33:10;20.15;;;18.00;;